sensor_id;sensor_type;location;lat;lon;timestamp;temperature;humidity
7445;DHT22;3764;48.126;11.594;2023-02-28T00:00:37;-0.60;99.90
7445;DHT22;3764;48.126;11.594;2023-02-28T00:03:04;-0.60;99.90
7445;DHT22;3764;48.126;11.594;2023-02-28T00:05:32;-0.50;99.90
7445;DHT22;3764;48.126;11.594;2023-02-28T00:07:59;-0.50;99.90
7445;DHT22;3764;48.126;11.594;2023-02-28T00:10:29;-0.50;99.90
7445;DHT22;3764;48.126;11.594;2023-02-28T00:13:01;-0.50;99.90
7445;DHT22;3764;48.126;11.594;2023-02-28T00:15:29;-0.40;99.90
7445;DHT22;3764;48.126;11.594;2023-02-28T00:17:56;-0.40;99.90
7445;DHT22;3764;48.126;11.594;2023-02-28T00:20:23;-0.40;99.90
7445;DHT22;3764;48.126;11.594;2023-02-28T00:22:52;-0.40;99.90
7445;DHT22;3764;48.126;11.594;2023-02-28T00:25:21;-0.40;99.90
7445;DHT22;3764;48.126;11.594;2023-02-28T00:27:48;-0.50;99.90
7445;DHT22;3764;48.126;11.594;2023-02-28T00:32:46;-0.50;99.90
7445;DHT22;3764;48.126;11.594;2023-02-28T00:35:13;-0.50;99.90
7445;DHT22;3764;48.126;11.594;2023-02-28T00:37:40;-0.50;99.90
7445;DHT22;3764;48.126;11.594;2023-02-28T00:40:09;-0.50;99.90
7445;DHT22;3764;48.126;11.594;2023-02-28T00:42:37;-0.60;99.90
7445;DHT22;3764;48.126;11.594;2023-02-28T00:45:05;-0.60;99.90
7445;DHT22;3764;48.126;11.594;2023-02-28T00:47:33;-0.60;99.90
7445;DHT22;3764;48.126;11.594;2023-02-28T00:50:03;-0.70;99.90
7445;DHT22;3764;48.126;11.594;2023-02-28T00:52:30;-0.60;99.90
7445;DHT22;3764;48.126;11.594;2023-02-28T00:54:57;-0.60;99.90
7445;DHT22;3764;48.126;11.594;2023-02-28T00:57:24;-0.60;99.90
7445;DHT22;3764;48.126;11.594;2023-02-28T00:59:52;-0.60;99.90
7445;DHT22;3764;48.126;11.594;2023-02-28T01:02:20;-0.60;99.90
7445;DHT22;3764;48.126;11.594;2023-02-28T01:04:47;-0.60;99.90
7445;DHT22;3764;48.126;11.594;2023-02-28T01:07:15;-0.50;99.90
7445;DHT22;3764;48.126;11.594;2023-02-28T01:09:42;-0.50;99.90
7445;DHT22;3764;48.126;11.594;2023-02-28T01:12:09;-0.50;99.90
7445;DHT22;3764;48.126;11.594;2023-02-28T01:14:37;-0.60;99.90
7445;DHT22;3764;48.126;11.594;2023-02-28T01:17:04;-0.60;99.90
7445;DHT22;3764;48.126;11.594;2023-02-28T01:19:31;-0.60;99.90
7445;DHT22;3764;48.126;11.594;2023-02-28T01:22:01;-0.60;99.90
7445;DHT22;3764;48.126;11.594;2023-02-28T01:24:29;-0.60;99.90
7445;DHT22;3764;48.126;11.594;2023-02-28T01:26:56;-0.60;99.90
7445;DHT22;3764;48.126;11.594;2023-02-28T01:29:24;-0.60;99.90
7445;DHT22;3764;48.126;11.594;2023-02-28T01:31:51;-0.60;99.90
7445;DHT22;3764;48.126;11.594;2023-02-28T01:34:18;-0.60;99.90
7445;DHT22;3764;48.126;11.594;2023-02-28T01:36:45;-0.60;99.90
7445;DHT22;3764;48.126;11.594;2023-02-28T01:39:13;-0.70;99.90
7445;DHT22;3764;48.126;11.594;2023-02-28T01:41:41;-0.70;99.90
7445;DHT22;3764;48.126;11.594;2023-02-28T01:47:09;-0.60;99.90
7445;DHT22;3764;48.126;11.594;2023-02-28T01:49:36;-0.60;99.90
7445;DHT22;3764;48.126;11.594;2023-02-28T01:52:04;-0.60;99.90
7445;DHT22;3764;48.126;11.594;2023-02-28T01:54:32;-0.70;99.90
7445;DHT22;3764;48.126;11.594;2023-02-28T01:57:05;-0.80;99.90
7445;DHT22;3764;48.126;11.594;2023-02-28T01:59:36;-0.80;99.90
7445;DHT22;3764;48.126;11.594;2023-02-28T02:02:06;-0.80;99.90
7445;DHT22;3764;48.126;11.594;2023-02-28T02:04:37;-0.80;99.90
7445;DHT22;3764;48.126;11.594;2023-02-28T02:07:07;-0.70;99.90
7445;DHT22;3764;48.126;11.594;2023-02-28T02:09:34;-0.80;99.90
7445;DHT22;3764;48.126;11.594;2023-02-28T02:12:11;-0.70;99.90
7445;DHT22;3764;48.126;11.594;2023-02-28T02:14:50;-0.80;99.90
7445;DHT22;3764;48.126;11.594;2023-02-28T02:17:24;-0.90;99.90
7445;DHT22;3764;48.126;11.594;2023-02-28T02:20:25;-1.00;99.90
7445;DHT22;3764;48.126;11.594;2023-02-28T02:29:39;-1.10;99.90
7445;DHT22;3764;48.126;11.594;2023-02-28T02:35:07;-1.10;99.90
7445;DHT22;3764;48.126;11.594;2023-02-28T02:37:42;-1.20;99.90
7445;DHT22;3764;48.126;11.594;2023-02-28T02:40:17;-1.20;99.90
7445;DHT22;3764;48.126;11.594;2023-02-28T02:42:50;-1.30;99.90
7445;DHT22;3764;48.126;11.594;2023-02-28T02:45:24;-1.30;99.90
7445;DHT22;3764;48.126;11.594;2023-02-28T02:47:54;-1.20;99.90
7445;DHT22;3764;48.126;11.594;2023-02-28T02:50:29;-1.20;99.90
7445;DHT22;3764;48.126;11.594;2023-02-28T02:52:59;-1.30;99.90
7445;DHT22;3764;48.126;11.594;2023-02-28T02:55:28;-1.30;99.90
7445;DHT22;3764;48.126;11.594;2023-02-28T02:57:58;-1.30;99.90
7445;DHT22;3764;48.126;11.594;2023-02-28T03:00:31;-1.30;99.90
7445;DHT22;3764;48.126;11.594;2023-02-28T03:03:01;-1.20;99.90
7445;DHT22;3764;48.126;11.594;2023-02-28T03:05:34;-1.10;99.90
7445;DHT22;3764;48.126;11.594;2023-02-28T03:08:04;-1.10;99.90
7445;DHT22;3764;48.126;11.594;2023-02-28T03:10:36;-1.10;99.90
7445;DHT22;3764;48.126;11.594;2023-02-28T03:13:23;-1.10;99.90
7445;DHT22;3764;48.126;11.594;2023-02-28T03:18:54;-1.10;99.90
7445;DHT22;3764;48.126;11.594;2023-02-28T03:21:30;-1.00;99.90
7445;DHT22;3764;48.126;11.594;2023-02-28T03:24:04;-1.10;99.90
7445;DHT22;3764;48.126;11.594;2023-02-28T03:26:36;-1.10;99.90
7445;DHT22;3764;48.126;11.594;2023-02-28T03:29:10;-1.10;99.90
7445;DHT22;3764;48.126;11.594;2023-02-28T03:31:46;-1.20;99.90
7445;DHT22;3764;48.126;11.594;2023-02-28T03:34:19;-1.20;99.90
7445;DHT22;3764;48.126;11.594;2023-02-28T03:36:52;-1.20;99.90
7445;DHT22;3764;48.126;11.594;2023-02-28T03:39:23;-1.20;99.90
7445;DHT22;3764;48.126;11.594;2023-02-28T03:41:54;-1.20;99.90
7445;DHT22;3764;48.126;11.594;2023-02-28T03:44:32;-1.20;99.90
7445;DHT22;3764;48.126;11.594;2023-02-28T03:47:03;-1.30;99.90
7445;DHT22;3764;48.126;11.594;2023-02-28T03:49:34;-1.30;99.90
7445;DHT22;3764;48.126;11.594;2023-02-28T03:52:06;-1.40;99.90
7445;DHT22;3764;48.126;11.594;2023-02-28T03:54:38;-1.40;99.90
7445;DHT22;3764;48.126;11.594;2023-02-28T03:57:12;-1.30;99.90
7445;DHT22;3764;48.126;11.594;2023-02-28T03:59:44;-1.30;99.90
7445;DHT22;3764;48.126;11.594;2023-02-28T04:02:13;-1.30;99.90
7445;DHT22;3764;48.126;11.594;2023-02-28T04:04:40;-1.30;99.90
7445;DHT22;3764;48.126;11.594;2023-02-28T04:07:12;-1.30;99.90
7445;DHT22;3764;48.126;11.594;2023-02-28T04:09:39;-1.30;99.90
7445;DHT22;3764;48.126;11.594;2023-02-28T04:12:06;-1.40;99.90
7445;DHT22;3764;48.126;11.594;2023-02-28T04:14:33;-1.40;99.90
7445;DHT22;3764;48.126;11.594;2023-02-28T04:17:01;-1.40;99.90
7445;DHT22;3764;48.126;11.594;2023-02-28T04:19:28;-1.50;99.90
7445;DHT22;3764;48.126;11.594;2023-02-28T04:21:55;-1.40;99.90
7445;DHT22;3764;48.126;11.594;2023-02-28T04:24:27;-1.40;99.90
7445;DHT22;3764;48.126;11.594;2023-02-28T04:26:56;-1.40;99.90
7445;DHT22;3764;48.126;11.594;2023-02-28T04:29:26;-1.30;99.90
7445;DHT22;3764;48.126;11.594;2023-02-28T04:31:53;-1.30;99.90
7445;DHT22;3764;48.126;11.594;2023-02-28T04:34:23;-1.30;99.90
7445;DHT22;3764;48.126;11.594;2023-02-28T04:36:51;-1.40;99.90
7445;DHT22;3764;48.126;11.594;2023-02-28T04:39:19;-1.40;99.90
7445;DHT22;3764;48.126;11.594;2023-02-28T04:41:48;-1.40;99.90
7445;DHT22;3764;48.126;11.594;2023-02-28T04:44:15;-1.40;99.90
7445;DHT22;3764;48.126;11.594;2023-02-28T04:46:43;-1.30;99.90
7445;DHT22;3764;48.126;11.594;2023-02-28T04:49:11;-1.30;99.90
7445;DHT22;3764;48.126;11.594;2023-02-28T04:51:39;-1.30;99.90
7445;DHT22;3764;48.126;11.594;2023-02-28T04:54:06;-1.30;99.90
7445;DHT22;3764;48.126;11.594;2023-02-28T04:56:33;-1.30;99.90
7445;DHT22;3764;48.126;11.594;2023-02-28T04:59:02;-1.30;99.90
7445;DHT22;3764;48.126;11.594;2023-02-28T05:01:31;-1.30;99.90
7445;DHT22;3764;48.126;11.594;2023-02-28T05:03:59;-1.40;99.90
7445;DHT22;3764;48.126;11.594;2023-02-28T05:06:28;-1.40;99.90
7445;DHT22;3764;48.126;11.594;2023-02-28T05:08:56;-1.40;99.90
7445;DHT22;3764;48.126;11.594;2023-02-28T05:11:24;-1.40;99.90
7445;DHT22;3764;48.126;11.594;2023-02-28T05:13:52;-1.40;99.90
7445;DHT22;3764;48.126;11.594;2023-02-28T05:16:22;-1.30;99.90
7445;DHT22;3764;48.126;11.594;2023-02-28T05:18:49;-1.30;99.90
7445;DHT22;3764;48.126;11.594;2023-02-28T05:21:28;-1.20;99.90
7445;DHT22;3764;48.126;11.594;2023-02-28T05:23:58;-1.20;99.90
7445;DHT22;3764;48.126;11.594;2023-02-28T05:26:26;-1.20;99.90
7445;DHT22;3764;48.126;11.594;2023-02-28T05:28:54;-1.20;99.90
7445;DHT22;3764;48.126;11.594;2023-02-28T05:31:23;-1.30;99.90
7445;DHT22;3764;48.126;11.594;2023-02-28T05:33:50;-1.30;99.90
7445;DHT22;3764;48.126;11.594;2023-02-28T05:36:18;-1.20;99.90
7445;DHT22;3764;48.126;11.594;2023-02-28T05:38:46;-1.20;99.90
7445;DHT22;3764;48.126;11.594;2023-02-28T05:41:14;-1.20;99.90
7445;DHT22;3764;48.126;11.594;2023-02-28T05:43:42;-1.20;99.90
7445;DHT22;3764;48.126;11.594;2023-02-28T05:46:10;-1.30;99.90
7445;DHT22;3764;48.126;11.594;2023-02-28T05:48:40;-1.30;99.90
7445;DHT22;3764;48.126;11.594;2023-02-28T05:51:08;-1.30;99.90
7445;DHT22;3764;48.126;11.594;2023-02-28T05:53:36;-1.30;99.90
7445;DHT22;3764;48.126;11.594;2023-02-28T05:56:04;-1.30;99.90
7445;DHT22;3764;48.126;11.594;2023-02-28T05:58:31;-1.30;99.90
7445;DHT22;3764;48.126;11.594;2023-02-28T06:00:59;-1.30;99.90
7445;DHT22;3764;48.126;11.594;2023-02-28T06:03:27;-1.20;99.90
7445;DHT22;3764;48.126;11.594;2023-02-28T06:05:56;-1.20;99.90
7445;DHT22;3764;48.126;11.594;2023-02-28T06:08:23;-1.20;99.90
7445;DHT22;3764;48.126;11.594;2023-02-28T06:10:51;-1.20;99.90
7445;DHT22;3764;48.126;11.594;2023-02-28T06:13:18;-1.10;99.90
7445;DHT22;3764;48.126;11.594;2023-02-28T06:15:45;-1.20;99.90
7445;DHT22;3764;48.126;11.594;2023-02-28T06:18:12;-1.20;99.90
7445;DHT22;3764;48.126;11.594;2023-02-28T06:20:39;-1.20;99.90
7445;DHT22;3764;48.126;11.594;2023-02-28T06:23:09;-1.20;99.90
7445;DHT22;3764;48.126;11.594;2023-02-28T06:25:36;-1.30;99.90
7445;DHT22;3764;48.126;11.594;2023-02-28T06:28:04;-1.30;99.90
7445;DHT22;3764;48.126;11.594;2023-02-28T06:30:31;-1.40;99.90
7445;DHT22;3764;48.126;11.594;2023-02-28T06:32:59;-1.50;99.90
7445;DHT22;3764;48.126;11.594;2023-02-28T06:35:26;-1.50;99.90
7445;DHT22;3764;48.126;11.594;2023-02-28T06:37:53;-1.50;99.90
7445;DHT22;3764;48.126;11.594;2023-02-28T06:40:21;-1.50;99.90
7445;DHT22;3764;48.126;11.594;2023-02-28T06:42:49;-1.50;99.90
7445;DHT22;3764;48.126;11.594;2023-02-28T06:45:16;-1.50;99.90
7445;DHT22;3764;48.126;11.594;2023-02-28T06:47:43;-1.40;99.90
7445;DHT22;3764;48.126;11.594;2023-02-28T06:50:11;-1.40;99.90
7445;DHT22;3764;48.126;11.594;2023-02-28T06:52:39;-1.40;99.90
7445;DHT22;3764;48.126;11.594;2023-02-28T06:55:07;-1.40;99.90
7445;DHT22;3764;48.126;11.594;2023-02-28T06:57:36;-1.40;99.90
7445;DHT22;3764;48.126;11.594;2023-02-28T07:00:05;-1.40;99.90
7445;DHT22;3764;48.126;11.594;2023-02-28T07:02:33;-1.40;99.90
7445;DHT22;3764;48.126;11.594;2023-02-28T07:05:00;-1.30;99.90
7445;DHT22;3764;48.126;11.594;2023-02-28T07:07:27;-1.30;99.90
7445;DHT22;3764;48.126;11.594;2023-02-28T07:09:54;-1.30;99.90
7445;DHT22;3764;48.126;11.594;2023-02-28T07:12:22;-1.40;99.90
7445;DHT22;3764;48.126;11.594;2023-02-28T07:14:50;-1.40;99.90
7445;DHT22;3764;48.126;11.594;2023-02-28T07:17:17;-1.40;99.90
7445;DHT22;3764;48.126;11.594;2023-02-28T07:19:45;-1.40;99.90
7445;DHT22;3764;48.126;11.594;2023-02-28T07:22:12;-1.30;99.90
7445;DHT22;3764;48.126;11.594;2023-02-28T07:24:39;-1.30;99.90
7445;DHT22;3764;48.126;11.594;2023-02-28T07:27:06;-1.20;99.90
7445;DHT22;3764;48.126;11.594;2023-02-28T07:29:33;-1.20;99.90
7445;DHT22;3764;48.126;11.594;2023-02-28T07:32:01;-1.20;99.90
7445;DHT22;3764;48.126;11.594;2023-02-28T07:34:29;-1.20;99.90
7445;DHT22;3764;48.126;11.594;2023-02-28T07:36:56;-1.20;99.90
7445;DHT22;3764;48.126;11.594;2023-02-28T07:39:23;-1.30;99.90
7445;DHT22;3764;48.126;11.594;2023-02-28T07:41:50;-1.30;99.90
7445;DHT22;3764;48.126;11.594;2023-02-28T07:44:17;-1.30;99.90
7445;DHT22;3764;48.126;11.594;2023-02-28T07:46:44;-1.30;99.90
7445;DHT22;3764;48.126;11.594;2023-02-28T07:49:13;-1.30;99.90
7445;DHT22;3764;48.126;11.594;2023-02-28T07:51:40;-1.20;99.90
7445;DHT22;3764;48.126;11.594;2023-02-28T07:54:07;-1.20;99.90
7445;DHT22;3764;48.126;11.594;2023-02-28T07:56:34;-1.10;99.90
7445;DHT22;3764;48.126;11.594;2023-02-28T07:59:01;-1.10;99.90
7445;DHT22;3764;48.126;11.594;2023-02-28T08:01:28;-1.10;99.90
7445;DHT22;3764;48.126;11.594;2023-02-28T08:03:55;-1.10;99.90
7445;DHT22;3764;48.126;11.594;2023-02-28T08:06:25;-1.10;99.90
7445;DHT22;3764;48.126;11.594;2023-02-28T08:08:53;-1.00;99.90
7445;DHT22;3764;48.126;11.594;2023-02-28T08:11:21;-1.00;99.90
7445;DHT22;3764;48.126;11.594;2023-02-28T08:13:48;-0.90;99.90
7445;DHT22;3764;48.126;11.594;2023-02-28T08:16:16;-0.90;99.90
7445;DHT22;3764;48.126;11.594;2023-02-28T08:18:48;-0.90;99.90
7445;DHT22;3764;48.126;11.594;2023-02-28T08:21:15;-0.90;99.90
7445;DHT22;3764;48.126;11.594;2023-02-28T08:23:43;-1.00;99.90
7445;DHT22;3764;48.126;11.594;2023-02-28T08:26:12;-1.00;99.90
7445;DHT22;3764;48.126;11.594;2023-02-28T08:28:39;-0.90;99.90
7445;DHT22;3764;48.126;11.594;2023-02-28T08:31:08;-0.90;99.90
7445;DHT22;3764;48.126;11.594;2023-02-28T08:33:36;-0.80;99.90
7445;DHT22;3764;48.126;11.594;2023-02-28T08:36:05;-0.80;99.90
7445;DHT22;3764;48.126;11.594;2023-02-28T08:38:32;-0.90;99.90
7445;DHT22;3764;48.126;11.594;2023-02-28T08:41:03;-0.80;99.90
7445;DHT22;3764;48.126;11.594;2023-02-28T08:43:31;-0.80;99.90
7445;DHT22;3764;48.126;11.594;2023-02-28T08:45:58;-0.70;99.90
7445;DHT22;3764;48.126;11.594;2023-02-28T08:48:27;-0.80;99.90
7445;DHT22;3764;48.126;11.594;2023-02-28T08:50:55;-0.70;99.90
7445;DHT22;3764;48.126;11.594;2023-02-28T08:53:22;-0.70;99.90
7445;DHT22;3764;48.126;11.594;2023-02-28T08:55:56;-0.70;99.90
7445;DHT22;3764;48.126;11.594;2023-02-28T08:58:25;-0.70;99.90
7445;DHT22;3764;48.126;11.594;2023-02-28T09:00:52;-0.70;99.90
7445;DHT22;3764;48.126;11.594;2023-02-28T09:03:19;-0.60;99.90
7445;DHT22;3764;48.126;11.594;2023-02-28T09:05:54;-0.60;99.90
7445;DHT22;3764;48.126;11.594;2023-02-28T09:08:21;-0.50;99.90
7445;DHT22;3764;48.126;11.594;2023-02-28T09:10:48;-0.50;99.90
7445;DHT22;3764;48.126;11.594;2023-02-28T09:13:15;-0.50;99.90
7445;DHT22;3764;48.126;11.594;2023-02-28T09:15:44;-0.50;99.90
7445;DHT22;3764;48.126;11.594;2023-02-28T09:18:11;-0.50;99.90
7445;DHT22;3764;48.126;11.594;2023-02-28T09:20:38;-0.50;99.90
7445;DHT22;3764;48.126;11.594;2023-02-28T09:23:06;-0.50;99.90
7445;DHT22;3764;48.126;11.594;2023-02-28T09:25:33;-0.50;99.90
7445;DHT22;3764;48.126;11.594;2023-02-28T09:28:00;-0.40;99.90
7445;DHT22;3764;48.126;11.594;2023-02-28T09:30:28;-0.40;99.90
7445;DHT22;3764;48.126;11.594;2023-02-28T09:32:57;-0.50;99.90
7445;DHT22;3764;48.126;11.594;2023-02-28T09:35:24;-0.40;99.90
7445;DHT22;3764;48.126;11.594;2023-02-28T09:37:52;-0.40;99.90
7445;DHT22;3764;48.126;11.594;2023-02-28T09:40:21;-0.40;99.90
7445;DHT22;3764;48.126;11.594;2023-02-28T09:42:51;-0.40;99.90
7445;DHT22;3764;48.126;11.594;2023-02-28T09:45:23;-0.40;99.90
7445;DHT22;3764;48.126;11.594;2023-02-28T09:47:53;-0.40;99.90
7445;DHT22;3764;48.126;11.594;2023-02-28T09:50:30;-0.40;99.90
7445;DHT22;3764;48.126;11.594;2023-02-28T09:52:59;-0.40;99.90
7445;DHT22;3764;48.126;11.594;2023-02-28T09:55:31;-0.40;99.90
7445;DHT22;3764;48.126;11.594;2023-02-28T09:58:00;-0.50;99.90
7445;DHT22;3764;48.126;11.594;2023-02-28T10:00:32;-0.50;99.90
7445;DHT22;3764;48.126;11.594;2023-02-28T10:03:25;-0.50;99.90
7445;DHT22;3764;48.126;11.594;2023-02-28T10:05:59;-0.40;99.90
7445;DHT22;3764;48.126;11.594;2023-02-28T10:08:31;-0.30;99.90
7445;DHT22;3764;48.126;11.594;2023-02-28T10:11:02;-0.30;99.90
7445;DHT22;3764;48.126;11.594;2023-02-28T10:13:34;-0.30;99.90
7445;DHT22;3764;48.126;11.594;2023-02-28T10:16:05;-0.30;99.90
7445;DHT22;3764;48.126;11.594;2023-02-28T10:18:40;-0.20;99.90
7445;DHT22;3764;48.126;11.594;2023-02-28T10:21:16;-0.20;99.90
7445;DHT22;3764;48.126;11.594;2023-02-28T10:23:43;-0.20;99.90
7445;DHT22;3764;48.126;11.594;2023-02-28T10:26:16;-0.10;99.90
7445;DHT22;3764;48.126;11.594;2023-02-28T10:28:45;-0.10;99.90
7445;DHT22;3764;48.126;11.594;2023-02-28T10:31:14;-0.10;99.90
7445;DHT22;3764;48.126;11.594;2023-02-28T10:33:43;-0.10;99.90
7445;DHT22;3764;48.126;11.594;2023-02-28T10:36:14;0.00;99.90
7445;DHT22;3764;48.126;11.594;2023-02-28T10:38:43;0.00;99.90
7445;DHT22;3764;48.126;11.594;2023-02-28T10:41:13;-0.10;99.90
7445;DHT22;3764;48.126;11.594;2023-02-28T10:43:42;0.00;99.90
7445;DHT22;3764;48.126;11.594;2023-02-28T10:46:13;-0.10;99.90
7445;DHT22;3764;48.126;11.594;2023-02-28T10:49:01;-0.10;99.90
7445;DHT22;3764;48.126;11.594;2023-02-28T10:51:37;0.00;99.90
7445;DHT22;3764;48.126;11.594;2023-02-28T10:54:05;0.00;99.90
7445;DHT22;3764;48.126;11.594;2023-02-28T10:56:32;0.00;99.90
7445;DHT22;3764;48.126;11.594;2023-02-28T10:59:01;0.00;99.90
7445;DHT22;3764;48.126;11.594;2023-02-28T11:01:37;0.10;99.90
7445;DHT22;3764;48.126;11.594;2023-02-28T11:04:17;0.20;99.90
7445;DHT22;3764;48.126;11.594;2023-02-28T11:06:46;0.20;99.90
7445;DHT22;3764;48.126;11.594;2023-02-28T11:09:23;0.30;99.90
7445;DHT22;3764;48.126;11.594;2023-02-28T11:11:52;0.30;99.90
7445;DHT22;3764;48.126;11.594;2023-02-28T11:14:21;0.30;99.90
7445;DHT22;3764;48.126;11.594;2023-02-28T11:16:50;0.30;99.90
7445;DHT22;3764;48.126;11.594;2023-02-28T11:19:20;0.30;99.90
7445;DHT22;3764;48.126;11.594;2023-02-28T11:21:54;0.30;99.90
7445;DHT22;3764;48.126;11.594;2023-02-28T11:24:25;0.40;99.90
7445;DHT22;3764;48.126;11.594;2023-02-28T11:26:53;0.50;99.90
7445;DHT22;3764;48.126;11.594;2023-02-28T11:29:22;0.60;99.90
7445;DHT22;3764;48.126;11.594;2023-02-28T11:32:13;0.70;99.90
7445;DHT22;3764;48.126;11.594;2023-02-28T11:34:43;0.80;99.90
7445;DHT22;3764;48.126;11.594;2023-02-28T11:37:14;0.80;99.90
7445;DHT22;3764;48.126;11.594;2023-02-28T11:39:42;0.90;99.90
7445;DHT22;3764;48.126;11.594;2023-02-28T11:42:34;1.00;99.90
7445;DHT22;3764;48.126;11.594;2023-02-28T11:47:57;1.10;99.90
7445;DHT22;3764;48.126;11.594;2023-02-28T11:50:46;1.10;99.90
7445;DHT22;3764;48.126;11.594;2023-02-28T11:53:23;1.20;99.90
7445;DHT22;3764;48.126;11.594;2023-02-28T11:55:54;1.20;99.90
7445;DHT22;3764;48.126;11.594;2023-02-28T11:58:33;1.20;99.90
7445;DHT22;3764;48.126;11.594;2023-02-28T12:01:14;1.30;99.90
7445;DHT22;3764;48.126;11.594;2023-02-28T12:03:56;1.30;99.90
7445;DHT22;3764;48.126;11.594;2023-02-28T12:06:30;1.50;99.90
7445;DHT22;3764;48.126;11.594;2023-02-28T12:09:15;1.60;99.90
7445;DHT22;3764;48.126;11.594;2023-02-28T12:14:44;1.80;99.90
7445;DHT22;3764;48.126;11.594;2023-02-28T12:17:24;1.80;99.90
7445;DHT22;3764;48.126;11.594;2023-02-28T12:20:00;1.90;99.90
7445;DHT22;3764;48.126;11.594;2023-02-28T12:22:30;1.80;99.90
7445;DHT22;3764;48.126;11.594;2023-02-28T12:28:17;1.90;99.90
7445;DHT22;3764;48.126;11.594;2023-02-28T12:30:52;2.00;99.90
7445;DHT22;3764;48.126;11.594;2023-02-28T12:33:24;2.10;99.90
7445;DHT22;3764;48.126;11.594;2023-02-28T12:35:55;2.10;99.90
7445;DHT22;3764;48.126;11.594;2023-02-28T12:38:25;2.30;99.90
7445;DHT22;3764;48.126;11.594;2023-02-28T12:40:54;2.50;99.90
7445;DHT22;3764;48.126;11.594;2023-02-28T12:43:30;2.80;99.90
7445;DHT22;3764;48.126;11.594;2023-02-28T12:46:00;3.10;99.90
7445;DHT22;3764;48.126;11.594;2023-02-28T12:48:33;3.30;99.90
7445;DHT22;3764;48.126;11.594;2023-02-28T12:51:05;3.50;99.90
7445;DHT22;3764;48.126;11.594;2023-02-28T12:53:42;3.50;99.90
7445;DHT22;3764;48.126;11.594;2023-02-28T12:56:16;3.40;99.90
7445;DHT22;3764;48.126;11.594;2023-02-28T12:58:49;3.50;99.90
7445;DHT22;3764;48.126;11.594;2023-02-28T13:04:41;3.70;99.90
7445;DHT22;3764;48.126;11.594;2023-02-28T13:07:45;3.80;99.90
7445;DHT22;3764;48.126;11.594;2023-02-28T13:10:16;3.80;99.90
7445;DHT22;3764;48.126;11.594;2023-02-28T13:12:48;3.80;99.90
7445;DHT22;3764;48.126;11.594;2023-02-28T13:15:21;3.90;99.90
7445;DHT22;3764;48.126;11.594;2023-02-28T13:17:51;3.90;99.90
7445;DHT22;3764;48.126;11.594;2023-02-28T13:20:21;3.80;99.90
7445;DHT22;3764;48.126;11.594;2023-02-28T13:22:49;3.60;99.90
7445;DHT22;3764;48.126;11.594;2023-02-28T13:25:51;3.50;99.90
7445;DHT22;3764;48.126;11.594;2023-02-28T13:34:36;3.30;99.90
7445;DHT22;3764;48.126;11.594;2023-02-28T13:37:32;3.30;99.90
7445;DHT22;3764;48.126;11.594;2023-02-28T13:42:49;3.30;99.90
7445;DHT22;3764;48.126;11.594;2023-02-28T13:45:24;3.30;99.90
7445;DHT22;3764;48.126;11.594;2023-02-28T13:47:58;3.30;99.90
7445;DHT22;3764;48.126;11.594;2023-02-28T13:50:34;3.30;99.90
7445;DHT22;3764;48.126;11.594;2023-02-28T13:53:27;3.30;99.90
7445;DHT22;3764;48.126;11.594;2023-02-28T13:56:03;3.30;99.90
7445;DHT22;3764;48.126;11.594;2023-02-28T13:58:51;3.30;99.90
7445;DHT22;3764;48.126;11.594;2023-02-28T14:01:48;3.30;99.90
7445;DHT22;3764;48.126;11.594;2023-02-28T14:04:59;3.30;99.90
7445;DHT22;3764;48.126;11.594;2023-02-28T14:07:31;3.30;99.90
7445;DHT22;3764;48.126;11.594;2023-02-28T14:10:02;3.20;99.90
7445;DHT22;3764;48.126;11.594;2023-02-28T14:12:57;3.30;99.90
7445;DHT22;3764;48.126;11.594;2023-02-28T14:15:46;3.30;99.90
7445;DHT22;3764;48.126;11.594;2023-02-28T14:18:24;3.50;99.90
7445;DHT22;3764;48.126;11.594;2023-02-28T14:24:03;3.70;99.90
7445;DHT22;3764;48.126;11.594;2023-02-28T14:29:50;3.80;99.90
7445;DHT22;3764;48.126;11.594;2023-02-28T14:32:25;3.80;99.90
7445;DHT22;3764;48.126;11.594;2023-02-28T14:34:58;3.70;99.90
7445;DHT22;3764;48.126;11.594;2023-02-28T14:37:33;3.70;99.90
7445;DHT22;3764;48.126;11.594;2023-02-28T14:40:04;3.70;99.90
7445;DHT22;3764;48.126;11.594;2023-02-28T14:42:38;3.70;99.90
7445;DHT22;3764;48.126;11.594;2023-02-28T14:45:18;3.60;99.90
7445;DHT22;3764;48.126;11.594;2023-02-28T14:47:46;3.60;99.90
7445;DHT22;3764;48.126;11.594;2023-02-28T14:50:18;3.60;99.90
7445;DHT22;3764;48.126;11.594;2023-02-28T14:52:46;3.60;99.90
7445;DHT22;3764;48.126;11.594;2023-02-28T14:55:16;3.60;99.90
7445;DHT22;3764;48.126;11.594;2023-02-28T14:57:52;3.50;99.90
7445;DHT22;3764;48.126;11.594;2023-02-28T15:00:23;3.50;99.90
7445;DHT22;3764;48.126;11.594;2023-02-28T15:02:50;3.50;99.90
7445;DHT22;3764;48.126;11.594;2023-02-28T15:05:28;3.50;99.90
7445;DHT22;3764;48.126;11.594;2023-02-28T15:08:05;3.50;99.90
7445;DHT22;3764;48.126;11.594;2023-02-28T15:10:34;3.50;99.90
7445;DHT22;3764;48.126;11.594;2023-02-28T15:13:04;3.50;99.90
7445;DHT22;3764;48.126;11.594;2023-02-28T15:15:42;3.50;99.90
7445;DHT22;3764;48.126;11.594;2023-02-28T15:18:16;3.50;99.90
7445;DHT22;3764;48.126;11.594;2023-02-28T15:20:49;3.60;99.90
7445;DHT22;3764;48.126;11.594;2023-02-28T15:23:17;3.50;99.90
7445;DHT22;3764;48.126;11.594;2023-02-28T15:25:46;3.50;99.90
7445;DHT22;3764;48.126;11.594;2023-02-28T15:28:17;3.50;99.90
7445;DHT22;3764;48.126;11.594;2023-02-28T15:30:55;3.40;99.90
7445;DHT22;3764;48.126;11.594;2023-02-28T15:33:25;3.40;99.90
7445;DHT22;3764;48.126;11.594;2023-02-28T15:36:03;3.30;99.90
7445;DHT22;3764;48.126;11.594;2023-02-28T15:38:35;3.30;99.90
7445;DHT22;3764;48.126;11.594;2023-02-28T15:41:04;3.30;99.90
7445;DHT22;3764;48.126;11.594;2023-02-28T15:43:35;3.30;99.90
7445;DHT22;3764;48.126;11.594;2023-02-28T15:46:04;3.30;99.90
7445;DHT22;3764;48.126;11.594;2023-02-28T15:48:34;3.30;99.90
7445;DHT22;3764;48.126;11.594;2023-02-28T15:51:07;3.30;99.90
7445;DHT22;3764;48.126;11.594;2023-02-28T15:53:37;3.20;99.90
7445;DHT22;3764;48.126;11.594;2023-02-28T15:56:17;3.20;99.90
7445;DHT22;3764;48.126;11.594;2023-02-28T15:58:47;3.20;99.90
7445;DHT22;3764;48.126;11.594;2023-02-28T16:01:20;3.20;99.90
7445;DHT22;3764;48.126;11.594;2023-02-28T16:03:50;3.20;99.90
7445;DHT22;3764;48.126;11.594;2023-02-28T16:06:34;3.20;99.90
7445;DHT22;3764;48.126;11.594;2023-02-28T16:09:02;3.20;99.90
7445;DHT22;3764;48.126;11.594;2023-02-28T16:11:33;3.20;99.90
7445;DHT22;3764;48.126;11.594;2023-02-28T16:14:00;3.20;99.90
7445;DHT22;3764;48.126;11.594;2023-02-28T16:16:28;3.10;99.90
7445;DHT22;3764;48.126;11.594;2023-02-28T16:18:57;3.10;99.90
7445;DHT22;3764;48.126;11.594;2023-02-28T16:21:25;3.20;99.90
7445;DHT22;3764;48.126;11.594;2023-02-28T16:23:52;3.20;99.90
7445;DHT22;3764;48.126;11.594;2023-02-28T16:26:21;3.20;99.90
7445;DHT22;3764;48.126;11.594;2023-02-28T16:28:51;3.20;99.90
7445;DHT22;3764;48.126;11.594;2023-02-28T16:31:19;3.20;99.90
7445;DHT22;3764;48.126;11.594;2023-02-28T16:33:47;3.20;99.90
7445;DHT22;3764;48.126;11.594;2023-02-28T16:36:16;3.20;99.90
7445;DHT22;3764;48.126;11.594;2023-02-28T16:38:43;3.20;99.90
7445;DHT22;3764;48.126;11.594;2023-02-28T16:41:13;3.20;99.90
7445;DHT22;3764;48.126;11.594;2023-02-28T16:43:46;3.20;99.90
7445;DHT22;3764;48.126;11.594;2023-02-28T16:46:15;3.20;99.90
7445;DHT22;3764;48.126;11.594;2023-02-28T16:48:43;3.20;99.90
7445;DHT22;3764;48.126;11.594;2023-02-28T16:51:14;3.20;99.90
7445;DHT22;3764;48.126;11.594;2023-02-28T16:53:42;3.20;99.90
7445;DHT22;3764;48.126;11.594;2023-02-28T16:56:15;3.20;99.90
7445;DHT22;3764;48.126;11.594;2023-02-28T16:58:43;3.20;99.90
7445;DHT22;3764;48.126;11.594;2023-02-28T17:01:11;3.20;99.90